sensor_id;sensor_type;location;lat;lon;timestamp;P1;durP1;ratioP1;P2;durP2;ratioP2
35223;SDS011;21367;51.930;8.112;2022-11-15T00:01:41;23.77;;;11.82;;
35223;SDS011;21367;51.930;8.112;2022-11-15T00:07:03;22.75;;;11.40;;
35223;SDS011;21367;51.930;8.112;2022-11-15T00:12:29;27.52;;;12.70;;
35223;SDS011;21367;51.930;8.112;2022-11-15T00:17:52;21.25;;;11.98;;
35223;SDS011;21367;51.930;8.112;2022-11-15T00:23:14;25.77;;;11.48;;
35223;SDS011;21367;51.930;8.112;2022-11-15T00:28:40;22.23;;;11.57;;
35223;SDS011;21367;51.930;8.112;2022-11-15T00:34:03;24.83;;;12.75;;
35223;SDS011;21367;51.930;8.112;2022-11-15T00:39:26;24.55;;;11.02;;
35223;SDS011;21367;51.930;8.112;2022-11-15T00:44:51;22.23;;;10.60;;
35223;SDS011;21367;51.930;8.112;2022-11-15T00:50:14;24.80;;;11.23;;
35223;SDS011;21367;51.930;8.112;2022-11-15T00:55:38;30.10;;;11.07;;
35223;SDS011;21367;51.930;8.112;2022-11-15T01:01:10;23.77;;;11.52;;
35223;SDS011;21367;51.930;8.112;2022-11-15T01:06:35;26.77;;;12.75;;
35223;SDS011;21367;51.930;8.112;2022-11-15T01:11:58;21.73;;;11.93;;
35223;SDS011;21367;51.930;8.112;2022-11-15T01:17:23;24.52;;;12.52;;
35223;SDS011;21367;51.930;8.112;2022-11-15T01:22:49;23.63;;;11.40;;
35223;SDS011;21367;51.930;8.112;2022-11-15T01:28:11;24.67;;;11.60;;
35223;SDS011;21367;51.930;8.112;2022-11-15T01:33:37;24.80;;;10.57;;
35223;SDS011;21367;51.930;8.112;2022-11-15T01:39:00;22.40;;;11.00;;
35223;SDS011;21367;51.930;8.112;2022-11-15T01:50:12;23.85;;;10.85;;
35223;SDS011;21367;51.930;8.112;2022-11-15T01:55:38;22.00;;;10.70;;
35223;SDS011;21367;51.930;8.112;2022-11-15T02:01:00;21.88;;;10.35;;
35223;SDS011;21367;51.930;8.112;2022-11-15T02:06:26;23.25;;;10.25;;
35223;SDS011;21367;51.930;8.112;2022-11-15T02:11:48;20.52;;;10.63;;
35223;SDS011;21367;51.930;8.112;2022-11-15T02:17:21;26.00;;;10.27;;
35223;SDS011;21367;51.930;8.112;2022-11-15T02:23:03;20.05;;;10.48;;
35223;SDS011;21367;51.930;8.112;2022-11-15T02:40:12;19.02;;;9.95;;
35223;SDS011;21367;51.930;8.112;2022-11-15T02:45:44;21.38;;;11.45;;
35223;SDS011;21367;51.930;8.112;2022-11-15T02:51:16;23.88;;;10.48;;
35223;SDS011;21367;51.930;8.112;2022-11-15T02:56:39;20.58;;;9.95;;
35223;SDS011;21367;51.930;8.112;2022-11-15T03:02:07;21.45;;;11.30;;
35223;SDS011;21367;51.930;8.112;2022-11-15T03:07:43;22.65;;;11.85;;
35223;SDS011;21367;51.930;8.112;2022-11-15T03:13:12;27.65;;;12.20;;
35223;SDS011;21367;51.930;8.112;2022-11-15T03:18:43;23.13;;;12.07;;
35223;SDS011;21367;51.930;8.112;2022-11-15T03:24:13;23.10;;;11.68;;
35223;SDS011;21367;51.930;8.112;2022-11-15T03:29:39;24.67;;;11.43;;
35223;SDS011;21367;51.930;8.112;2022-11-15T03:35:07;28.25;;;12.80;;
35223;SDS011;21367;51.930;8.112;2022-11-15T03:40:37;27.80;;;12.18;;
35223;SDS011;21367;51.930;8.112;2022-11-15T03:46:04;24.80;;;12.38;;
35223;SDS011;21367;51.930;8.112;2022-11-15T03:51:33;26.17;;;12.30;;
35223;SDS011;21367;51.930;8.112;2022-11-15T03:56:59;24.02;;;11.68;;
35223;SDS011;21367;51.930;8.112;2022-11-15T04:02:22;29.17;;;11.88;;
35223;SDS011;21367;51.930;8.112;2022-11-15T04:07:44;19.65;;;11.13;;
35223;SDS011;21367;51.930;8.112;2022-11-15T04:13:10;21.55;;;10.68;;
35223;SDS011;21367;51.930;8.112;2022-11-15T04:18:33;23.58;;;11.63;;
35223;SDS011;21367;51.930;8.112;2022-11-15T04:23:56;24.67;;;11.63;;
35223;SDS011;21367;51.930;8.112;2022-11-15T04:29:33;24.10;;;11.52;;
35223;SDS011;21367;51.930;8.112;2022-11-15T04:34:58;22.73;;;11.45;;
35223;SDS011;21367;51.930;8.112;2022-11-15T04:40:21;25.17;;;11.00;;
35223;SDS011;21367;51.930;8.112;2022-11-15T04:45:46;29.35;;;12.73;;
35223;SDS011;21367;51.930;8.112;2022-11-15T04:51:09;26.67;;;11.80;;
35223;SDS011;21367;51.930;8.112;2022-11-15T04:56:31;18.65;;;11.07;;
35223;SDS011;21367;51.930;8.112;2022-11-15T05:01:56;20.63;;;11.38;;
35223;SDS011;21367;51.930;8.112;2022-11-15T05:07:19;27.30;;;11.93;;
35223;SDS011;21367;51.930;8.112;2022-11-15T05:12:42;25.52;;;12.05;;
35223;SDS011;21367;51.930;8.112;2022-11-15T05:18:07;25.90;;;11.82;;
35223;SDS011;21367;51.930;8.112;2022-11-15T05:23:30;29.63;;;12.38;;
35223;SDS011;21367;51.930;8.112;2022-11-15T05:28:53;21.75;;;11.88;;
35223;SDS011;21367;51.930;8.112;2022-11-15T05:34:19;22.33;;;12.30;;
35223;SDS011;21367;51.930;8.112;2022-11-15T05:39:44;23.10;;;10.65;;
35223;SDS011;21367;51.930;8.112;2022-11-15T05:45:07;29.75;;;13.02;;
35223;SDS011;21367;51.930;8.112;2022-11-15T05:50:34;28.45;;;12.30;;
35223;SDS011;21367;51.930;8.112;2022-11-15T05:55:59;26.45;;;13.15;;
35223;SDS011;21367;51.930;8.112;2022-11-15T06:01:22;31.17;;;13.57;;
35223;SDS011;21367;51.930;8.112;2022-11-15T06:06:50;27.70;;;12.30;;
35223;SDS011;21367;51.930;8.112;2022-11-15T06:12:13;21.95;;;11.32;;
35223;SDS011;21367;51.930;8.112;2022-11-15T06:17:36;28.85;;;12.63;;
35223;SDS011;21367;51.930;8.112;2022-11-15T06:23:02;24.83;;;12.35;;
35223;SDS011;21367;51.930;8.112;2022-11-15T06:28:27;26.15;;;12.23;;
35223;SDS011;21367;51.930;8.112;2022-11-15T06:33:50;32.00;;;13.32;;
35223;SDS011;21367;51.930;8.112;2022-11-15T06:39:16;30.98;;;13.65;;
35223;SDS011;21367;51.930;8.112;2022-11-15T06:44:39;31.27;;;13.50;;
35223;SDS011;21367;51.930;8.112;2022-11-15T06:50:02;33.13;;;15.18;;
35223;SDS011;21367;51.930;8.112;2022-11-15T06:55:27;30.23;;;13.60;;
35223;SDS011;21367;51.930;8.112;2022-11-15T07:00:50;26.95;;;13.10;;
35223;SDS011;21367;51.930;8.112;2022-11-15T07:06:13;26.70;;;13.93;;
35223;SDS011;21367;51.930;8.112;2022-11-15T07:11:38;26.65;;;12.70;;
35223;SDS011;21367;51.930;8.112;2022-11-15T07:17:02;24.98;;;12.77;;
35223;SDS011;21367;51.930;8.112;2022-11-15T07:22:27;29.67;;;12.55;;
35223;SDS011;21367;51.930;8.112;2022-11-15T07:27:56;23.50;;;11.48;;
35223;SDS011;21367;51.930;8.112;2022-11-15T07:33:19;19.95;;;11.93;;
35223;SDS011;21367;51.930;8.112;2022-11-15T07:38:41;24.38;;;10.88;;
35223;SDS011;21367;51.930;8.112;2022-11-15T07:44:07;19.70;;;9.98;;
35223;SDS011;21367;51.930;8.112;2022-11-15T07:49:29;23.40;;;10.18;;
35223;SDS011;21367;51.930;8.112;2022-11-15T07:54:52;20.40;;;10.40;;
35223;SDS011;21367;51.930;8.112;2022-11-15T08:00:19;15.32;;;9.38;;
35223;SDS011;21367;51.930;8.112;2022-11-15T08:05:42;20.25;;;9.70;;
35223;SDS011;21367;51.930;8.112;2022-11-15T08:11:05;20.45;;;9.25;;
35223;SDS011;21367;51.930;8.112;2022-11-15T08:16:30;23.67;;;10.07;;
35223;SDS011;21367;51.930;8.112;2022-11-15T08:21:53;14.15;;;7.18;;
35223;SDS011;21367;51.930;8.112;2022-11-15T08:27:15;7.93;;;4.60;;
35223;SDS011;21367;51.930;8.112;2022-11-15T08:32:41;9.15;;;4.50;;
35223;SDS011;21367;51.930;8.112;2022-11-15T08:38:04;5.37;;;2.97;;
35223;SDS011;21367;51.930;8.112;2022-11-15T08:43:27;4.28;;;2.60;;
35223;SDS011;21367;51.930;8.112;2022-11-15T08:48:52;5.60;;;2.33;;
35223;SDS011;21367;51.930;8.112;2022-11-15T08:54:15;8.30;;;1.95;;
35223;SDS011;21367;51.930;8.112;2022-11-15T08:59:37;2.75;;;1.50;;
35223;SDS011;21367;51.930;8.112;2022-11-15T09:05:03;4.25;;;1.75;;
35223;SDS011;21367;51.930;8.112;2022-11-15T09:10:26;4.57;;;1.90;;
35223;SDS011;21367;51.930;8.112;2022-11-15T09:15:50;3.70;;;1.60;;
35223;SDS011;21367;51.930;8.112;2022-11-15T09:21:15;5.05;;;1.58;;
35223;SDS011;21367;51.930;8.112;2022-11-15T09:26:38;2.97;;;1.77;;
35223;SDS011;21367;51.930;8.112;2022-11-15T09:32:00;3.35;;;1.42;;
35223;SDS011;21367;51.930;8.112;2022-11-15T09:37:26;4.40;;;1.70;;
35223;SDS011;21367;51.930;8.112;2022-11-15T09:42:55;1.83;;;1.40;;
35223;SDS011;21367;51.930;8.112;2022-11-15T09:48:35;2.90;;;1.63;;
35223;SDS011;21367;51.930;8.112;2022-11-15T09:54:13;2.88;;;1.50;;
35223;SDS011;21367;51.930;8.112;2022-11-15T09:59:33;4.85;;;1.88;;
35223;SDS011;21367;51.930;8.112;2022-11-15T10:04:46;1.63;;;1.10;;
35223;SDS011;21367;51.930;8.112;2022-11-15T10:09:54;5.10;;;1.65;;
35223;SDS011;21367;51.930;8.112;2022-11-15T10:15:05;4.45;;;1.70;;
35223;SDS011;21367;51.930;8.112;2022-11-15T10:20:17;5.53;;;1.27;;
35223;SDS011;21367;51.930;8.112;2022-11-15T10:25:28;3.05;;;1.38;;
35223;SDS011;21367;51.930;8.112;2022-11-15T10:30:34;2.53;;;1.10;;
35223;SDS011;21367;51.930;8.112;2022-11-15T10:35:40;2.75;;;1.25;;
35223;SDS011;21367;51.930;8.112;2022-11-15T10:40:47;4.05;;;1.45;;
35223;SDS011;21367;51.930;8.112;2022-11-15T10:45:51;1.52;;;0.88;;
35223;SDS011;21367;51.930;8.112;2022-11-15T10:50:55;4.95;;;1.08;;
35223;SDS011;21367;51.930;8.112;2022-11-15T10:56:05;5.05;;;1.00;;
35223;SDS011;21367;51.930;8.112;2022-11-15T11:01:13;2.13;;;0.90;;
35223;SDS011;21367;51.930;8.112;2022-11-15T11:06:19;2.08;;;1.10;;
35223;SDS011;21367;51.930;8.112;2022-11-15T11:11:26;4.97;;;1.35;;
35223;SDS011;21367;51.930;8.112;2022-11-15T11:16:49;5.78;;;1.23;;
35223;SDS011;21367;51.930;8.112;2022-11-15T11:21:58;9.23;;;1.10;;
35223;SDS011;21367;51.930;8.112;2022-11-15T11:27:16;5.15;;;1.58;;
35223;SDS011;21367;51.930;8.112;2022-11-15T11:32:32;4.55;;;1.35;;
35223;SDS011;21367;51.930;8.112;2022-11-15T11:37:45;3.55;;;1.17;;
35223;SDS011;21367;51.930;8.112;2022-11-15T11:42:58;5.03;;;1.45;;
35223;SDS011;21367;51.930;8.112;2022-11-15T11:48:10;3.35;;;1.38;;
35223;SDS011;21367;51.930;8.112;2022-11-15T11:53:20;4.28;;;1.48;;
35223;SDS011;21367;51.930;8.112;2022-11-15T11:58:33;3.30;;;1.25;;
35223;SDS011;21367;51.930;8.112;2022-11-15T12:03:40;3.95;;;1.40;;
35223;SDS011;21367;51.930;8.112;2022-11-15T12:08:49;3.65;;;1.13;;
35223;SDS011;21367;51.930;8.112;2022-11-15T12:14:01;2.00;;;1.10;;
35223;SDS011;21367;51.930;8.112;2022-11-15T12:19:11;7.15;;;1.55;;
35223;SDS011;21367;51.930;8.112;2022-11-15T12:24:17;6.85;;;1.55;;
35223;SDS011;21367;51.930;8.112;2022-11-15T12:29:31;6.40;;;1.83;;
35223;SDS011;21367;51.930;8.112;2022-11-15T12:34:44;4.00;;;1.63;;
35223;SDS011;21367;51.930;8.112;2022-11-15T12:40:03;2.67;;;1.40;;
35223;SDS011;21367;51.930;8.112;2022-11-15T12:45:28;2.50;;;1.55;;
35223;SDS011;21367;51.930;8.112;2022-11-15T12:56:08;8.07;;;1.60;;
35223;SDS011;21367;51.930;8.112;2022-11-15T13:07:03;2.90;;;1.80;;
35223;SDS011;21367;51.930;8.112;2022-11-15T13:12:08;5.15;;;1.80;;
35223;SDS011;21367;51.930;8.112;2022-11-15T13:17:28;2.65;;;1.30;;
35223;SDS011;21367;51.930;8.112;2022-11-15T13:22:38;4.65;;;1.50;;
35223;SDS011;21367;51.930;8.112;2022-11-15T13:27:56;3.10;;;1.30;;
35223;SDS011;21367;51.930;8.112;2022-11-15T13:33:06;7.72;;;1.50;;
35223;SDS011;21367;51.930;8.112;2022-11-15T13:38:17;1.83;;;1.15;;
35223;SDS011;21367;51.930;8.112;2022-11-15T13:43:32;2.72;;;1.42;;
35223;SDS011;21367;51.930;8.112;2022-11-15T13:48:41;7.10;;;1.45;;
35223;SDS011;21367;51.930;8.112;2022-11-15T13:53:48;9.43;;;1.40;;
35223;SDS011;21367;51.930;8.112;2022-11-15T13:58:55;5.13;;;2.30;;
35223;SDS011;21367;51.930;8.112;2022-11-15T14:04:02;5.85;;;1.52;;
35223;SDS011;21367;51.930;8.112;2022-11-15T14:14:44;11.15;;;1.52;;
35223;SDS011;21367;51.930;8.112;2022-11-15T14:19:52;5.63;;;1.52;;
35223;SDS011;21367;51.930;8.112;2022-11-15T14:25:07;3.95;;;1.38;;
35223;SDS011;21367;51.930;8.112;2022-11-15T14:30:19;13.90;;;1.75;;
35223;SDS011;21367;51.930;8.112;2022-11-15T14:35:26;4.57;;;1.73;;
35223;SDS011;21367;51.930;8.112;2022-11-15T14:40:30;5.50;;;2.33;;
35223;SDS011;21367;51.930;8.112;2022-11-15T14:45:34;7.15;;;3.33;;
35223;SDS011;21367;51.930;8.112;2022-11-15T14:50:41;8.27;;;1.95;;
35223;SDS011;21367;51.930;8.112;2022-11-15T14:55:45;8.77;;;2.05;;
35223;SDS011;21367;51.930;8.112;2022-11-15T15:00:49;5.80;;;1.70;;
35223;SDS011;21367;51.930;8.112;2022-11-15T15:05:56;4.90;;;1.40;;
35223;SDS011;21367;51.930;8.112;2022-11-15T15:11:00;9.13;;;2.00;;
35223;SDS011;21367;51.930;8.112;2022-11-15T15:16:04;3.33;;;1.33;;
35223;SDS011;21367;51.930;8.112;2022-11-15T15:21:16;8.30;;;3.42;;
35223;SDS011;21367;51.930;8.112;2022-11-15T15:26:24;20.92;;;6.75;;
35223;SDS011;21367;51.930;8.112;2022-11-15T15:31:28;15.27;;;5.07;;
35223;SDS011;21367;51.930;8.112;2022-11-15T15:41:40;13.32;;;5.18;;
35223;SDS011;21367;51.930;8.112;2022-11-15T15:46:44;10.90;;;4.50;;
35223;SDS011;21367;51.930;8.112;2022-11-15T15:51:51;10.60;;;4.18;;
35223;SDS011;21367;51.930;8.112;2022-11-15T15:56:55;13.27;;;5.53;;
35223;SDS011;21367;51.930;8.112;2022-11-15T16:02:01;17.17;;;3.37;;
35223;SDS011;21367;51.930;8.112;2022-11-15T16:07:08;11.23;;;2.80;;
35223;SDS011;21367;51.930;8.112;2022-11-15T16:12:19;5.57;;;2.80;;
35223;SDS011;21367;51.930;8.112;2022-11-15T16:17:24;6.68;;;3.00;;
35223;SDS011;21367;51.930;8.112;2022-11-15T16:22:36;7.43;;;3.40;;
35223;SDS011;21367;51.930;8.112;2022-11-15T16:27:40;14.45;;;4.40;;
35223;SDS011;21367;51.930;8.112;2022-11-15T16:32:45;19.42;;;5.22;;
35223;SDS011;21367;51.930;8.112;2022-11-15T16:37:52;18.27;;;4.68;;
35223;SDS011;21367;51.930;8.112;2022-11-15T16:42:56;12.85;;;4.53;;
35223;SDS011;21367;51.930;8.112;2022-11-15T16:48:02;8.73;;;5.10;;
35223;SDS011;21367;51.930;8.112;2022-11-15T16:53:09;13.93;;;5.95;;
35223;SDS011;21367;51.930;8.112;2022-11-15T16:58:13;8.90;;;5.20;;
35223;SDS011;21367;51.930;8.112;2022-11-15T17:03:17;10.98;;;4.28;;
35223;SDS011;21367;51.930;8.112;2022-11-15T17:08:24;13.13;;;5.13;;
35223;SDS011;21367;51.930;8.112;2022-11-15T17:13:28;10.52;;;4.95;;
35223;SDS011;21367;51.930;8.112;2022-11-15T17:18:33;10.48;;;5.15;;
35223;SDS011;21367;51.930;8.112;2022-11-15T17:23:40;20.05;;;5.75;;
35223;SDS011;21367;51.930;8.112;2022-11-15T17:28:45;18.05;;;7.00;;
35223;SDS011;21367;51.930;8.112;2022-11-15T17:33:49;13.65;;;5.43;;
35223;SDS011;21367;51.930;8.112;2022-11-15T17:39:00;9.95;;;5.20;;
35223;SDS011;21367;51.930;8.112;2022-11-15T17:44:04;12.35;;;4.35;;
35223;SDS011;21367;51.930;8.112;2022-11-15T17:49:08;8.48;;;4.25;;
35223;SDS011;21367;51.930;8.112;2022-11-15T17:54:15;8.32;;;4.57;;
35223;SDS011;21367;51.930;8.112;2022-11-15T17:59:19;13.90;;;5.25;;
35223;SDS011;21367;51.930;8.112;2022-11-15T18:04:23;12.20;;;5.20;;
35223;SDS011;21367;51.930;8.112;2022-11-15T18:09:30;13.88;;;7.20;;
35223;SDS011;21367;51.930;8.112;2022-11-15T18:14:35;16.50;;;4.78;;
35223;SDS011;21367;51.930;8.112;2022-11-15T18:19:39;14.88;;;4.97;;
35223;SDS011;21367;51.930;8.112;2022-11-15T18:24:46;11.75;;;5.43;;
35223;SDS011;21367;51.930;8.112;2022-11-15T18:29:50;10.77;;;5.65;;
35223;SDS011;21367;51.930;8.112;2022-11-15T18:34:54;8.98;;;5.07;;
35223;SDS011;21367;51.930;8.112;2022-11-15T18:40:03;12.20;;;5.05;;
35223;SDS011;21367;51.930;8.112;2022-11-15T18:45:08;13.35;;;4.35;;
35223;SDS011;21367;51.930;8.112;2022-11-15T18:50:13;13.80;;;4.77;;
35223;SDS011;21367;51.930;8.112;2022-11-15T18:55:20;8.85;;;4.80;;
35223;SDS011;21367;51.930;8.112;2022-11-15T19:00:25;8.20;;;4.35;;
35223;SDS011;21367;51.930;8.112;2022-11-15T19:05:30;12.20;;;5.97;;
35223;SDS011;21367;51.930;8.112;2022-11-15T19:10:37;12.70;;;5.25;;
35223;SDS011;21367;51.930;8.112;2022-11-15T19:15:41;11.25;;;5.57;;
35223;SDS011;21367;51.930;8.112;2022-11-15T19:20:45;9.25;;;5.10;;
35223;SDS011;21367;51.930;8.112;2022-11-15T19:25:56;13.52;;;5.50;;
35223;SDS011;21367;51.930;8.112;2022-11-15T19:31:02;8.20;;;4.88;;
35223;SDS011;21367;51.930;8.112;2022-11-15T19:36:09;12.35;;;5.38;;
35223;SDS011;21367;51.930;8.112;2022-11-15T19:41:19;8.50;;;4.75;;
35223;SDS011;21367;51.930;8.112;2022-11-15T19:46:25;8.88;;;5.00;;
35223;SDS011;21367;51.930;8.112;2022-11-15T19:51:29;9.50;;;5.30;;
35223;SDS011;21367;51.930;8.112;2022-11-15T19:56:37;11.32;;;5.18;;
35223;SDS011;21367;51.930;8.112;2022-11-15T20:01:42;11.98;;;5.50;;
35223;SDS011;21367;51.930;8.112;2022-11-15T20:06:47;9.18;;;4.80;;
35223;SDS011;21367;51.930;8.112;2022-11-15T20:11:53;10.38;;;5.05;;
35223;SDS011;21367;51.930;8.112;2022-11-15T20:16:58;13.13;;;5.53;;
35223;SDS011;21367;51.930;8.112;2022-11-15T20:22:02;10.45;;;4.60;;
35223;SDS011;21367;51.930;8.112;2022-11-15T20:27:09;8.70;;;5.30;;
35223;SDS011;21367;51.930;8.112;2022-11-15T20:32:13;12.60;;;5.82;;
35223;SDS011;21367;51.930;8.112;2022-11-15T20:37:17;10.55;;;6.00;;
35223;SDS011;21367;51.930;8.112;2022-11-15T20:42:24;8.27;;;4.50;;
35223;SDS011;21367;51.930;8.112;2022-11-15T20:47:28;9.90;;;4.57;;
35223;SDS011;21367;51.930;8.112;2022-11-15T20:52:32;11.63;;;5.45;;
35223;SDS011;21367;51.930;8.112;2022-11-15T20:57:39;9.93;;;4.80;;
35223;SDS011;21367;51.930;8.112;2022-11-15T21:02:43;12.75;;;4.70;;
35223;SDS011;21367;51.930;8.112;2022-11-15T21:07:47;8.82;;;4.50;;
35223;SDS011;21367;51.930;8.112;2022-11-15T21:12:54;14.95;;;5.72;;
35223;SDS011;21367;51.930;8.112;2022-11-15T21:17:58;13.40;;;4.97;;
35223;SDS011;21367;51.930;8.112;2022-11-15T21:23:02;13.85;;;5.22;;
35223;SDS011;21367;51.930;8.112;2022-11-15T21:28:08;9.80;;;5.20;;
35223;SDS011;21367;51.930;8.112;2022-11-15T21:33:13;10.80;;;4.28;;
35223;SDS011;21367;51.930;8.112;2022-11-15T21:38:17;11.80;;;4.70;;
35223;SDS011;21367;51.930;8.112;2022-11-15T21:43:25;5.95;;;3.53;;
35223;SDS011;21367;51.930;8.112;2022-11-15T21:48:30;7.43;;;4.10;;
35223;SDS011;21367;51.930;8.112;2022-11-15T21:53:35;10.18;;;3.80;;
35223;SDS011;21367;51.930;8.112;2022-11-15T21:58:42;9.15;;;3.33;;
35223;SDS011;21367;51.930;8.112;2022-11-15T22:03:46;6.10;;;3.58;;
35223;SDS011;21367;51.930;8.112;2022-11-15T22:08:50;8.65;;;3.58;;
35223;SDS011;21367;51.930;8.112;2022-11-15T22:13:57;7.55;;;3.67;;
35223;SDS011;21367;51.930;8.112;2022-11-15T22:19:01;8.57;;;3.40;;
35223;SDS011;21367;51.930;8.112;2022-11-15T22:24:05;12.10;;;4.32;;
35223;SDS011;21367;51.930;8.112;2022-11-15T22:29:13;9.27;;;4.47;;
35223;SDS011;21367;51.930;8.112;2022-11-15T22:34:17;9.98;;;3.80;;
35223;SDS011;21367;51.930;8.112;2022-11-15T22:39:22;6.65;;;3.75;;
35223;SDS011;21367;51.930;8.112;2022-11-15T22:44:29;7.22;;;4.00;;
35223;SDS011;21367;51.930;8.112;2022-11-15T22:49:33;7.05;;;3.50;;
35223;SDS011;21367;51.930;8.112;2022-11-15T22:54:37;7.22;;;3.53;;
35223;SDS011;21367;51.930;8.112;2022-11-15T22:59:45;6.97;;;3.45;;
35223;SDS011;21367;51.930;8.112;2022-11-15T23:04:49;6.78;;;3.28;;
35223;SDS011;21367;51.930;8.112;2022-11-15T23:09:53;9.18;;;3.63;;
35223;SDS011;21367;51.930;8.112;2022-11-15T23:15:21;7.03;;;3.33;;
35223;SDS011;21367;51.930;8.112;2022-11-15T23:20:25;7.15;;;3.50;;
35223;SDS011;21367;51.930;8.112;2022-11-15T23:25:29;8.80;;;4.13;;
35223;SDS011;21367;51.930;8.112;2022-11-15T23:30:36;6.75;;;3.85;;
35223;SDS011;21367;51.930;8.112;2022-11-15T23:35:53;14.80;;;4.95;;
35223;SDS011;21367;51.930;8.112;2022-11-15T23:40:57;8.63;;;4.00;;
35223;SDS011;21367;51.930;8.112;2022-11-15T23:46:04;8.98;;;4.88;;
35223;SDS011;21367;51.930;8.112;2022-11-15T23:51:09;7.60;;;4.63;;
35223;SDS011;21367;51.930;8.112;2022-11-15T23:56:14;11.45;;;4.85;;
